sensor_id;sensor_type;location;lat;lon;timestamp;temperature;humidity
2603;DHT22;1311;47.966;7.958;2022-10-31T00:01:40;12.80;99.90
2603;DHT22;1311;47.966;7.958;2022-10-31T00:04:09;12.80;99.90
2603;DHT22;1311;47.966;7.958;2022-10-31T00:06:35;12.70;99.90
2603;DHT22;1311;47.966;7.958;2022-10-31T00:09:04;12.70;99.90
2603;DHT22;1311;47.966;7.958;2022-10-31T00:11:31;12.70;99.90
2603;DHT22;1311;47.966;7.958;2022-10-31T00:13:58;12.80;99.90
2603;DHT22;1311;47.966;7.958;2022-10-31T00:16:26;12.80;99.90
2603;DHT22;1311;47.966;7.958;2022-10-31T00:18:54;12.70;99.90
2603;DHT22;1311;47.966;7.958;2022-10-31T00:21:24;12.70;99.90
2603;DHT22;1311;47.966;7.958;2022-10-31T00:23:51;12.70;99.90
2603;DHT22;1311;47.966;7.958;2022-10-31T00:26:18;12.60;99.90
2603;DHT22;1311;47.966;7.958;2022-10-31T00:28:45;12.60;99.90
2603;DHT22;1311;47.966;7.958;2022-10-31T00:31:12;12.50;99.90
2603;DHT22;1311;47.966;7.958;2022-10-31T00:33:40;12.70;99.90
2603;DHT22;1311;47.966;7.958;2022-10-31T00:36:11;12.70;99.90
2603;DHT22;1311;47.966;7.958;2022-10-31T00:38:39;12.60;99.90
2603;DHT22;1311;47.966;7.958;2022-10-31T00:41:06;12.60;99.90
2603;DHT22;1311;47.966;7.958;2022-10-31T00:43:33;12.50;99.90
2603;DHT22;1311;47.966;7.958;2022-10-31T00:46:00;12.70;99.90
2603;DHT22;1311;47.966;7.958;2022-10-31T00:48:27;12.50;99.90
2603;DHT22;1311;47.966;7.958;2022-10-31T00:50:54;12.50;99.90
2603;DHT22;1311;47.966;7.958;2022-10-31T00:53:21;12.50;99.90
2603;DHT22;1311;47.966;7.958;2022-10-31T00:55:49;12.70;99.90
2603;DHT22;1311;47.966;7.958;2022-10-31T00:58:16;12.70;99.90
2603;DHT22;1311;47.966;7.958;2022-10-31T01:00:43;12.60;99.90
2603;DHT22;1311;47.966;7.958;2022-10-31T01:03:09;12.50;99.90
2603;DHT22;1311;47.966;7.958;2022-10-31T01:05:36;12.50;99.90
2603;DHT22;1311;47.966;7.958;2022-10-31T01:08:03;12.50;99.90
2603;DHT22;1311;47.966;7.958;2022-10-31T01:10:30;12.50;99.90
2603;DHT22;1311;47.966;7.958;2022-10-31T01:12:58;12.40;99.90
2603;DHT22;1311;47.966;7.958;2022-10-31T01:15:25;12.60;99.90
2603;DHT22;1311;47.966;7.958;2022-10-31T01:17:52;12.50;99.90
2603;DHT22;1311;47.966;7.958;2022-10-31T01:20:19;12.60;99.90
2603;DHT22;1311;47.966;7.958;2022-10-31T01:22:46;12.60;99.90
2603;DHT22;1311;47.966;7.958;2022-10-31T01:25:13;12.50;99.90
2603;DHT22;1311;47.966;7.958;2022-10-31T01:27:40;12.40;99.90
2603;DHT22;1311;47.966;7.958;2022-10-31T01:30:09;12.30;99.90
2603;DHT22;1311;47.966;7.958;2022-10-31T01:32:36;12.40;99.90
2603;DHT22;1311;47.966;7.958;2022-10-31T01:35:03;12.50;99.90
2603;DHT22;1311;47.966;7.958;2022-10-31T01:37:31;12.60;99.90
2603;DHT22;1311;47.966;7.958;2022-10-31T01:39:58;12.50;99.90
2603;DHT22;1311;47.966;7.958;2022-10-31T01:42:24;12.50;99.90
2603;DHT22;1311;47.966;7.958;2022-10-31T01:44:55;12.60;99.90
2603;DHT22;1311;47.966;7.958;2022-10-31T01:47:32;12.70;99.90
2603;DHT22;1311;47.966;7.958;2022-10-31T01:50:04;12.60;99.90
2603;DHT22;1311;47.966;7.958;2022-10-31T01:52:36;12.60;99.90
2603;DHT22;1311;47.966;7.958;2022-10-31T01:55:06;12.60;99.90
2603;DHT22;1311;47.966;7.958;2022-10-31T01:57:35;12.50;99.90
2603;DHT22;1311;47.966;7.958;2022-10-31T02:00:07;12.50;99.90
2603;DHT22;1311;47.966;7.958;2022-10-31T02:02:35;12.40;99.90
2603;DHT22;1311;47.966;7.958;2022-10-31T02:05:05;12.50;99.90
2603;DHT22;1311;47.966;7.958;2022-10-31T02:07:37;12.50;99.90
2603;DHT22;1311;47.966;7.958;2022-10-31T02:10:06;12.60;99.90
2603;DHT22;1311;47.966;7.958;2022-10-31T02:12:34;12.40;99.90
2603;DHT22;1311;47.966;7.958;2022-10-31T02:15:04;12.40;99.90
2603;DHT22;1311;47.966;7.958;2022-10-31T02:17:31;12.30;99.90
2603;DHT22;1311;47.966;7.958;2022-10-31T02:20:09;12.30;99.90
2603;DHT22;1311;47.966;7.958;2022-10-31T02:22:44;12.30;99.90
2603;DHT22;1311;47.966;7.958;2022-10-31T02:25:56;12.30;99.90
2603;DHT22;1311;47.966;7.958;2022-10-31T02:28:47;12.40;99.90
2603;DHT22;1311;47.966;7.958;2022-10-31T02:31:26;12.40;99.90
2603;DHT22;1311;47.966;7.958;2022-10-31T02:34:01;12.60;99.90
2603;DHT22;1311;47.966;7.958;2022-10-31T02:36:34;12.40;99.90
2603;DHT22;1311;47.966;7.958;2022-10-31T02:39:07;12.40;99.90
2603;DHT22;1311;47.966;7.958;2022-10-31T02:41:44;12.40;99.90
2603;DHT22;1311;47.966;7.958;2022-10-31T02:44:17;12.40;99.90
2603;DHT22;1311;47.966;7.958;2022-10-31T02:46:50;12.30;99.90
2603;DHT22;1311;47.966;7.958;2022-10-31T02:49:23;12.40;99.90
2603;DHT22;1311;47.966;7.958;2022-10-31T02:51:51;12.50;99.90
2603;DHT22;1311;47.966;7.958;2022-10-31T02:54:19;12.60;99.90
2603;DHT22;1311;47.966;7.958;2022-10-31T02:56:48;12.50;99.90
2603;DHT22;1311;47.966;7.958;2022-10-31T02:59:16;12.50;99.90
2603;DHT22;1311;47.966;7.958;2022-10-31T03:01:57;12.50;99.90
2603;DHT22;1311;47.966;7.958;2022-10-31T03:04:42;12.40;99.90
2603;DHT22;1311;47.966;7.958;2022-10-31T03:07:16;12.40;99.90
2603;DHT22;1311;47.966;7.958;2022-10-31T03:09:53;12.40;99.90
2603;DHT22;1311;47.966;7.958;2022-10-31T03:12:29;12.40;99.90
2603;DHT22;1311;47.966;7.958;2022-10-31T03:15:03;12.40;99.90
2603;DHT22;1311;47.966;7.958;2022-10-31T03:17:37;12.30;99.90
2603;DHT22;1311;47.966;7.958;2022-10-31T03:20:09;12.30;99.90
2603;DHT22;1311;47.966;7.958;2022-10-31T03:22:38;12.30;99.90
2603;DHT22;1311;47.966;7.958;2022-10-31T03:25:06;12.30;99.90
2603;DHT22;1311;47.966;7.958;2022-10-31T03:27:35;12.40;99.90
2603;DHT22;1311;47.966;7.958;2022-10-31T03:30:05;12.40;99.90
2603;DHT22;1311;47.966;7.958;2022-10-31T03:32:38;12.30;99.90
2603;DHT22;1311;47.966;7.958;2022-10-31T03:35:08;12.30;99.90
2603;DHT22;1311;47.966;7.958;2022-10-31T03:37:39;12.30;99.90
2603;DHT22;1311;47.966;7.958;2022-10-31T03:40:08;12.20;99.90
2603;DHT22;1311;47.966;7.958;2022-10-31T03:42:39;12.30;99.90
2603;DHT22;1311;47.966;7.958;2022-10-31T03:45:11;12.30;99.90
2603;DHT22;1311;47.966;7.958;2022-10-31T03:47:41;12.30;99.90
2603;DHT22;1311;47.966;7.958;2022-10-31T03:50:12;12.30;99.90
2603;DHT22;1311;47.966;7.958;2022-10-31T03:52:44;12.40;99.90
2603;DHT22;1311;47.966;7.958;2022-10-31T03:55:17;12.40;99.90
2603;DHT22;1311;47.966;7.958;2022-10-31T03:57:50;12.30;99.90
2603;DHT22;1311;47.966;7.958;2022-10-31T04:00:17;12.30;99.90
2603;DHT22;1311;47.966;7.958;2022-10-31T04:02:51;12.40;99.90
2603;DHT22;1311;47.966;7.958;2022-10-31T04:05:20;12.30;99.90
2603;DHT22;1311;47.966;7.958;2022-10-31T04:07:51;12.20;99.90
2603;DHT22;1311;47.966;7.958;2022-10-31T04:10:19;12.20;99.90
2603;DHT22;1311;47.966;7.958;2022-10-31T04:12:54;12.20;99.90
2603;DHT22;1311;47.966;7.958;2022-10-31T04:15:23;12.20;99.90
2603;DHT22;1311;47.966;7.958;2022-10-31T04:17:54;12.10;99.90
2603;DHT22;1311;47.966;7.958;2022-10-31T04:20:30;12.20;99.90
2603;DHT22;1311;47.966;7.958;2022-10-31T04:22:57;12.20;99.90
2603;DHT22;1311;47.966;7.958;2022-10-31T04:25:23;12.20;99.90
2603;DHT22;1311;47.966;7.958;2022-10-31T04:27:50;12.20;99.90
2603;DHT22;1311;47.966;7.958;2022-10-31T04:30:17;12.50;99.90
2603;DHT22;1311;47.966;7.958;2022-10-31T04:32:44;12.70;99.90
2603;DHT22;1311;47.966;7.958;2022-10-31T04:35:12;12.70;99.90
2603;DHT22;1311;47.966;7.958;2022-10-31T04:37:39;12.70;99.90
2603;DHT22;1311;47.966;7.958;2022-10-31T04:40:06;12.60;99.90
2603;DHT22;1311;47.966;7.958;2022-10-31T04:42:33;12.70;99.90
2603;DHT22;1311;47.966;7.958;2022-10-31T04:45:00;12.70;99.90
2603;DHT22;1311;47.966;7.958;2022-10-31T04:47:27;12.70;99.90
2603;DHT22;1311;47.966;7.958;2022-10-31T04:49:54;12.50;99.90
2603;DHT22;1311;47.966;7.958;2022-10-31T04:52:22;12.50;99.90
2603;DHT22;1311;47.966;7.958;2022-10-31T04:54:48;12.50;99.90
2603;DHT22;1311;47.966;7.958;2022-10-31T04:57:15;12.40;99.90
2603;DHT22;1311;47.966;7.958;2022-10-31T04:59:42;12.50;99.90
2603;DHT22;1311;47.966;7.958;2022-10-31T05:02:09;12.40;99.90
2603;DHT22;1311;47.966;7.958;2022-10-31T05:04:35;12.40;99.90
2603;DHT22;1311;47.966;7.958;2022-10-31T05:07:02;12.40;99.90
2603;DHT22;1311;47.966;7.958;2022-10-31T05:09:30;12.30;99.90
2603;DHT22;1311;47.966;7.958;2022-10-31T05:11:57;12.20;99.90
2603;DHT22;1311;47.966;7.958;2022-10-31T05:14:24;12.10;99.90
2603;DHT22;1311;47.966;7.958;2022-10-31T05:16:50;12.10;99.90
2603;DHT22;1311;47.966;7.958;2022-10-31T05:19:17;12.10;99.90
2603;DHT22;1311;47.966;7.958;2022-10-31T05:21:44;12.00;99.90
2603;DHT22;1311;47.966;7.958;2022-10-31T05:24:11;12.00;99.90
2603;DHT22;1311;47.966;7.958;2022-10-31T05:26:39;12.00;99.90
2603;DHT22;1311;47.966;7.958;2022-10-31T05:29:06;12.00;99.90
2603;DHT22;1311;47.966;7.958;2022-10-31T05:31:32;11.90;99.90
2603;DHT22;1311;47.966;7.958;2022-10-31T05:33:59;12.00;99.90
2603;DHT22;1311;47.966;7.958;2022-10-31T05:36:26;11.90;99.90
2603;DHT22;1311;47.966;7.958;2022-10-31T05:38:53;11.90;99.90
2603;DHT22;1311;47.966;7.958;2022-10-31T05:41:19;11.90;99.90
2603;DHT22;1311;47.966;7.958;2022-10-31T05:43:47;11.90;99.90
2603;DHT22;1311;47.966;7.958;2022-10-31T05:46:14;11.90;99.90
2603;DHT22;1311;47.966;7.958;2022-10-31T05:48:41;11.90;99.90
2603;DHT22;1311;47.966;7.958;2022-10-31T05:51:08;11.90;99.90
2603;DHT22;1311;47.966;7.958;2022-10-31T05:53:34;11.80;99.90
2603;DHT22;1311;47.966;7.958;2022-10-31T05:56:01;11.90;99.90
2603;DHT22;1311;47.966;7.958;2022-10-31T05:58:29;11.90;99.90
2603;DHT22;1311;47.966;7.958;2022-10-31T06:00:57;11.90;99.90
2603;DHT22;1311;47.966;7.958;2022-10-31T06:03:24;11.90;99.90
2603;DHT22;1311;47.966;7.958;2022-10-31T06:05:51;12.00;99.90
2603;DHT22;1311;47.966;7.958;2022-10-31T06:08:17;12.00;99.90
2603;DHT22;1311;47.966;7.958;2022-10-31T06:10:44;12.10;99.90
2603;DHT22;1311;47.966;7.958;2022-10-31T06:13:11;12.30;99.90
2603;DHT22;1311;47.966;7.958;2022-10-31T06:15:38;12.20;99.90
2603;DHT22;1311;47.966;7.958;2022-10-31T06:18:06;12.30;99.90
2603;DHT22;1311;47.966;7.958;2022-10-31T06:20:33;12.30;99.90
2603;DHT22;1311;47.966;7.958;2022-10-31T06:23:00;12.30;99.90
2603;DHT22;1311;47.966;7.958;2022-10-31T06:25:32;12.40;99.90
2603;DHT22;1311;47.966;7.958;2022-10-31T06:27:59;12.30;99.90
2603;DHT22;1311;47.966;7.958;2022-10-31T06:30:26;12.40;99.90
2603;DHT22;1311;47.966;7.958;2022-10-31T06:32:52;12.50;99.90
2603;DHT22;1311;47.966;7.958;2022-10-31T06:35:21;12.40;99.90
2603;DHT22;1311;47.966;7.958;2022-10-31T06:37:51;12.50;99.90
2603;DHT22;1311;47.966;7.958;2022-10-31T06:40:18;12.50;99.90
2603;DHT22;1311;47.966;7.958;2022-10-31T06:42:45;12.50;99.90
2603;DHT22;1311;47.966;7.958;2022-10-31T06:45:12;12.50;99.90
2603;DHT22;1311;47.966;7.958;2022-10-31T06:47:39;12.50;99.90
2603;DHT22;1311;47.966;7.958;2022-10-31T06:50:06;12.50;99.90
2603;DHT22;1311;47.966;7.958;2022-10-31T06:52:35;12.50;99.90
2603;DHT22;1311;47.966;7.958;2022-10-31T06:55:01;12.50;99.90
2603;DHT22;1311;47.966;7.958;2022-10-31T06:57:28;12.60;99.90
2603;DHT22;1311;47.966;7.958;2022-10-31T06:59:55;12.60;99.90
2603;DHT22;1311;47.966;7.958;2022-10-31T07:02:22;12.70;99.90
2603;DHT22;1311;47.966;7.958;2022-10-31T07:04:48;12.80;99.90
2603;DHT22;1311;47.966;7.958;2022-10-31T07:07:15;12.90;99.90
2603;DHT22;1311;47.966;7.958;2022-10-31T07:09:43;12.90;99.90
2603;DHT22;1311;47.966;7.958;2022-10-31T07:12:10;13.00;99.90
2603;DHT22;1311;47.966;7.958;2022-10-31T07:14:37;13.00;99.90
2603;DHT22;1311;47.966;7.958;2022-10-31T07:17:04;13.00;99.90
2603;DHT22;1311;47.966;7.958;2022-10-31T07:19:30;13.10;99.90
2603;DHT22;1311;47.966;7.958;2022-10-31T07:21:57;13.10;99.90
2603;DHT22;1311;47.966;7.958;2022-10-31T07:24:24;13.10;99.90
2603;DHT22;1311;47.966;7.958;2022-10-31T07:26:52;13.20;99.90
2603;DHT22;1311;47.966;7.958;2022-10-31T07:29:19;13.20;99.90
2603;DHT22;1311;47.966;7.958;2022-10-31T07:31:46;13.20;99.90
2603;DHT22;1311;47.966;7.958;2022-10-31T07:34:13;13.20;99.90
2603;DHT22;1311;47.966;7.958;2022-10-31T07:36:39;13.30;99.90
2603;DHT22;1311;47.966;7.958;2022-10-31T07:39:06;13.30;99.90
2603;DHT22;1311;47.966;7.958;2022-10-31T07:41:33;13.40;99.90
2603;DHT22;1311;47.966;7.958;2022-10-31T07:44:01;13.50;99.90
2603;DHT22;1311;47.966;7.958;2022-10-31T07:46:29;13.60;99.90
2603;DHT22;1311;47.966;7.958;2022-10-31T07:48:56;13.70;99.90
2603;DHT22;1311;47.966;7.958;2022-10-31T07:51:22;13.80;99.90
2603;DHT22;1311;47.966;7.958;2022-10-31T07:53:49;13.90;99.90
2603;DHT22;1311;47.966;7.958;2022-10-31T07:56:16;14.00;99.90
2603;DHT22;1311;47.966;7.958;2022-10-31T07:58:43;14.10;99.90
2603;DHT22;1311;47.966;7.958;2022-10-31T08:01:11;14.20;99.90
2603;DHT22;1311;47.966;7.958;2022-10-31T08:03:38;14.30;99.90
2603;DHT22;1311;47.966;7.958;2022-10-31T08:06:05;14.50;99.90
2603;DHT22;1311;47.966;7.958;2022-10-31T08:08:32;14.50;99.90
2603;DHT22;1311;47.966;7.958;2022-10-31T08:10:58;14.60;99.90
2603;DHT22;1311;47.966;7.958;2022-10-31T08:13:25;14.70;99.90
2603;DHT22;1311;47.966;7.958;2022-10-31T08:15:52;14.80;99.90
2603;DHT22;1311;47.966;7.958;2022-10-31T08:18:21;14.90;99.90
2603;DHT22;1311;47.966;7.958;2022-10-31T08:20:49;15.00;99.90
2603;DHT22;1311;47.966;7.958;2022-10-31T08:23:16;15.10;99.90
2603;DHT22;1311;47.966;7.958;2022-10-31T08:25:42;15.20;99.90
2603;DHT22;1311;47.966;7.958;2022-10-31T08:28:11;15.30;99.90
2603;DHT22;1311;47.966;7.958;2022-10-31T08:30:39;15.40;99.90
2603;DHT22;1311;47.966;7.958;2022-10-31T08:33:08;15.50;99.90
2603;DHT22;1311;47.966;7.958;2022-10-31T08:35:37;15.50;99.90
2603;DHT22;1311;47.966;7.958;2022-10-31T08:38:04;15.60;99.90
2603;DHT22;1311;47.966;7.958;2022-10-31T08:40:33;15.70;99.90
2603;DHT22;1311;47.966;7.958;2022-10-31T08:43:01;15.80;99.90
2603;DHT22;1311;47.966;7.958;2022-10-31T08:45:33;15.90;99.90
2603;DHT22;1311;47.966;7.958;2022-10-31T08:48:01;16.00;99.90
2603;DHT22;1311;47.966;7.958;2022-10-31T08:50:33;16.10;99.90
2603;DHT22;1311;47.966;7.958;2022-10-31T08:53:02;16.20;99.90
2603;DHT22;1311;47.966;7.958;2022-10-31T08:55:30;16.30;99.90
2603;DHT22;1311;47.966;7.958;2022-10-31T08:57:57;16.40;99.90
2603;DHT22;1311;47.966;7.958;2022-10-31T09:00:24;16.50;99.90
2603;DHT22;1311;47.966;7.958;2022-10-31T09:02:56;16.50;99.90
2603;DHT22;1311;47.966;7.958;2022-10-31T09:05:23;16.70;99.90
2603;DHT22;1311;47.966;7.958;2022-10-31T09:07:51;16.80;99.90
2603;DHT22;1311;47.966;7.958;2022-10-31T09:10:19;16.90;99.90
2603;DHT22;1311;47.966;7.958;2022-10-31T09:12:45;17.00;99.90
2603;DHT22;1311;47.966;7.958;2022-10-31T09:15:12;17.10;99.90
2603;DHT22;1311;47.966;7.958;2022-10-31T09:17:39;17.10;99.90
2603;DHT22;1311;47.966;7.958;2022-10-31T09:20:12;17.20;99.90
2603;DHT22;1311;47.966;7.958;2022-10-31T09:22:41;17.30;99.90
2603;DHT22;1311;47.966;7.958;2022-10-31T09:25:08;17.40;99.90
2603;DHT22;1311;47.966;7.958;2022-10-31T09:27:36;17.50;99.90
2603;DHT22;1311;47.966;7.958;2022-10-31T09:30:04;17.60;99.90
2603;DHT22;1311;47.966;7.958;2022-10-31T09:32:31;17.70;99.90
2603;DHT22;1311;47.966;7.958;2022-10-31T09:34:58;17.80;99.90
2603;DHT22;1311;47.966;7.958;2022-10-31T09:37:24;17.90;99.90
2603;DHT22;1311;47.966;7.958;2022-10-31T09:39:51;18.00;99.90
2603;DHT22;1311;47.966;7.958;2022-10-31T09:45:18;18.10;99.90
2603;DHT22;1311;47.966;7.958;2022-10-31T09:47:57;18.20;99.90
2603;DHT22;1311;47.966;7.958;2022-10-31T09:50:31;18.20;99.90
2603;DHT22;1311;47.966;7.958;2022-10-31T09:53:03;18.40;99.90
2603;DHT22;1311;47.966;7.958;2022-10-31T09:55:36;18.40;99.90
2603;DHT22;1311;47.966;7.958;2022-10-31T09:58:04;18.50;99.90
2603;DHT22;1311;47.966;7.958;2022-10-31T10:00:32;18.50;99.90
2603;DHT22;1311;47.966;7.958;2022-10-31T10:03:03;18.50;99.90
2603;DHT22;1311;47.966;7.958;2022-10-31T10:05:38;18.50;99.90
2603;DHT22;1311;47.966;7.958;2022-10-31T10:08:10;18.60;99.90
2603;DHT22;1311;47.966;7.958;2022-10-31T10:10:47;18.70;99.90
2603;DHT22;1311;47.966;7.958;2022-10-31T10:13:31;18.80;99.90
2603;DHT22;1311;47.966;7.958;2022-10-31T10:16:10;18.90;99.90
2603;DHT22;1311;47.966;7.958;2022-10-31T10:18:48;19.00;99.90
2603;DHT22;1311;47.966;7.958;2022-10-31T10:21:30;19.10;99.90
2603;DHT22;1311;47.966;7.958;2022-10-31T10:24:11;19.10;99.90
2603;DHT22;1311;47.966;7.958;2022-10-31T10:26:43;19.10;99.90
2603;DHT22;1311;47.966;7.958;2022-10-31T10:29:26;19.10;99.90
2603;DHT22;1311;47.966;7.958;2022-10-31T10:31:58;19.10;99.90
2603;DHT22;1311;47.966;7.958;2022-10-31T10:34:31;19.30;99.90
2603;DHT22;1311;47.966;7.958;2022-10-31T10:37:04;19.20;99.90
2603;DHT22;1311;47.966;7.958;2022-10-31T10:39:36;19.20;99.90
2603;DHT22;1311;47.966;7.958;2022-10-31T10:42:10;19.20;99.90
2603;DHT22;1311;47.966;7.958;2022-10-31T10:44:55;19.20;99.90
2603;DHT22;1311;47.966;7.958;2022-10-31T10:47:42;19.20;99.90
2603;DHT22;1311;47.966;7.958;2022-10-31T10:50:13;19.10;99.90
2603;DHT22;1311;47.966;7.958;2022-10-31T10:52:48;19.10;99.90
2603;DHT22;1311;47.966;7.958;2022-10-31T10:55:27;18.90;99.90
2603;DHT22;1311;47.966;7.958;2022-10-31T10:57:58;18.60;99.90
2603;DHT22;1311;47.966;7.958;2022-10-31T11:00:30;18.60;99.90
2603;DHT22;1311;47.966;7.958;2022-10-31T11:03:01;18.50;99.90
2603;DHT22;1311;47.966;7.958;2022-10-31T11:05:36;18.30;99.90
2603;DHT22;1311;47.966;7.958;2022-10-31T11:08:09;18.20;99.90
2603;DHT22;1311;47.966;7.958;2022-10-31T11:10:40;18.00;99.90
2603;DHT22;1311;47.966;7.958;2022-10-31T11:13:20;18.00;99.90
2603;DHT22;1311;47.966;7.958;2022-10-31T11:15:55;17.90;99.90
2603;DHT22;1311;47.966;7.958;2022-10-31T11:18:30;18.10;99.90
2603;DHT22;1311;47.966;7.958;2022-10-31T11:20:59;18.10;99.90
2603;DHT22;1311;47.966;7.958;2022-10-31T11:23:30;18.20;99.90
2603;DHT22;1311;47.966;7.958;2022-10-31T11:25:58;18.30;99.90
2603;DHT22;1311;47.966;7.958;2022-10-31T11:28:26;18.40;99.90
2603;DHT22;1311;47.966;7.958;2022-10-31T11:30:55;18.50;99.90
2603;DHT22;1311;47.966;7.958;2022-10-31T11:33:28;18.60;99.90
2603;DHT22;1311;47.966;7.958;2022-10-31T11:35:56;18.70;99.90
2603;DHT22;1311;47.966;7.958;2022-10-31T11:38:34;18.80;99.90
2603;DHT22;1311;47.966;7.958;2022-10-31T11:41:11;19.00;99.90
2603;DHT22;1311;47.966;7.958;2022-10-31T11:43:46;19.30;99.90
2603;DHT22;1311;47.966;7.958;2022-10-31T11:46:19;19.60;99.90
2603;DHT22;1311;47.966;7.958;2022-10-31T11:48:50;19.80;99.90
2603;DHT22;1311;47.966;7.958;2022-10-31T11:51:21;19.70;99.90
2603;DHT22;1311;47.966;7.958;2022-10-31T11:53:51;19.90;99.90
2603;DHT22;1311;47.966;7.958;2022-10-31T11:56:19;20.10;99.90
2603;DHT22;1311;47.966;7.958;2022-10-31T11:58:55;20.10;99.90
2603;DHT22;1311;47.966;7.958;2022-10-31T12:01:25;20.20;99.90
2603;DHT22;1311;47.966;7.958;2022-10-31T12:04:04;20.20;99.90
2603;DHT22;1311;47.966;7.958;2022-10-31T12:06:34;20.30;99.90
2603;DHT22;1311;47.966;7.958;2022-10-31T12:09:01;20.30;99.90
2603;DHT22;1311;47.966;7.958;2022-10-31T12:11:40;20.20;99.90
2603;DHT22;1311;47.966;7.958;2022-10-31T12:14:21;20.20;99.90
2603;DHT22;1311;47.966;7.958;2022-10-31T12:16:56;20.30;99.90
2603;DHT22;1311;47.966;7.958;2022-10-31T12:19:35;20.50;99.90
2603;DHT22;1311;47.966;7.958;2022-10-31T12:22:11;20.50;99.90
2603;DHT22;1311;47.966;7.958;2022-10-31T12:24:42;20.60;99.90
2603;DHT22;1311;47.966;7.958;2022-10-31T12:27:12;20.60;99.90
2603;DHT22;1311;47.966;7.958;2022-10-31T12:29:47;20.60;99.90
2603;DHT22;1311;47.966;7.958;2022-10-31T12:32:20;20.60;99.90
2603;DHT22;1311;47.966;7.958;2022-10-31T12:35:08;20.70;99.90
2603;DHT22;1311;47.966;7.958;2022-10-31T12:37:44;20.70;99.90
2603;DHT22;1311;47.966;7.958;2022-10-31T12:40:22;20.70;99.90
2603;DHT22;1311;47.966;7.958;2022-10-31T12:42:54;20.80;99.90
2603;DHT22;1311;47.966;7.958;2022-10-31T12:45:36;20.80;99.90
2603;DHT22;1311;47.966;7.958;2022-10-31T12:48:33;20.70;99.90
2603;DHT22;1311;47.966;7.958;2022-10-31T12:51:11;20.70;99.90
2603;DHT22;1311;47.966;7.958;2022-10-31T12:53:56;20.70;99.90
2603;DHT22;1311;47.966;7.958;2022-10-31T12:56:37;20.70;99.90
2603;DHT22;1311;47.966;7.958;2022-10-31T12:59:13;20.70;99.90
2603;DHT22;1311;47.966;7.958;2022-10-31T13:01:45;20.60;99.90
2603;DHT22;1311;47.966;7.958;2022-10-31T13:04:17;20.70;99.90
2603;DHT22;1311;47.966;7.958;2022-10-31T13:06:49;20.80;99.90
2603;DHT22;1311;47.966;7.958;2022-10-31T13:09:22;20.80;99.90
2603;DHT22;1311;47.966;7.958;2022-10-31T13:11:54;20.80;99.90
2603;DHT22;1311;47.966;7.958;2022-10-31T13:14:25;20.80;99.90
2603;DHT22;1311;47.966;7.958;2022-10-31T13:16:54;20.80;99.90
2603;DHT22;1311;47.966;7.958;2022-10-31T13:19:25;20.90;99.90
2603;DHT22;1311;47.966;7.958;2022-10-31T13:21:59;20.80;99.90
2603;DHT22;1311;47.966;7.958;2022-10-31T13:24:44;20.70;99.90
2603;DHT22;1311;47.966;7.958;2022-10-31T13:27:17;20.60;99.90
2603;DHT22;1311;47.966;7.958;2022-10-31T13:29:56;20.60;99.90
2603;DHT22;1311;47.966;7.958;2022-10-31T13:32:23;20.60;99.90
2603;DHT22;1311;47.966;7.958;2022-10-31T13:34:53;20.60;99.90
2603;DHT22;1311;47.966;7.958;2022-10-31T13:37:35;20.60;99.90
2603;DHT22;1311;47.966;7.958;2022-10-31T13:40:14;20.70;99.90
2603;DHT22;1311;47.966;7.958;2022-10-31T13:42:54;20.70;99.90
2603;DHT22;1311;47.966;7.958;2022-10-31T13:45:24;20.70;99.90
2603;DHT22;1311;47.966;7.958;2022-10-31T13:47:59;20.70;99.90
2603;DHT22;1311;47.966;7.958;2022-10-31T13:50:28;20.60;99.90
2603;DHT22;1311;47.966;7.958;2022-10-31T13:53:21;20.60;99.90
2603;DHT22;1311;47.966;7.958;2022-10-31T13:55:49;20.60;99.90
2603;DHT22;1311;47.966;7.958;2022-10-31T13:58:22;20.50;99.90
2603;DHT22;1311;47.966;7.958;2022-10-31T14:01:14;20.50;99.90
2603;DHT22;1311;47.966;7.958;2022-10-31T14:03:45;20.50;99.90
2603;DHT22;1311;47.966;7.958;2022-10-31T14:06:14;20.60;99.90
2603;DHT22;1311;47.966;7.958;2022-10-31T14:08:49;20.60;99.90
2603;DHT22;1311;47.966;7.958;2022-10-31T14:11:22;20.50;99.90
2603;DHT22;1311;47.966;7.958;2022-10-31T14:13:49;20.30;99.90
2603;DHT22;1311;47.966;7.958;2022-10-31T14:16:19;20.30;99.90
2603;DHT22;1311;47.966;7.958;2022-10-31T14:18:50;20.20;99.90
2603;DHT22;1311;47.966;7.958;2022-10-31T14:21:27;20.10;99.90
2603;DHT22;1311;47.966;7.958;2022-10-31T14:23:56;20.00;99.90
2603;DHT22;1311;47.966;7.958;2022-10-31T14:26:34;19.90;99.90
2603;DHT22;1311;47.966;7.958;2022-10-31T14:29:22;19.80;99.90
2603;DHT22;1311;47.966;7.958;2022-10-31T14:31:58;19.70;99.90
2603;DHT22;1311;47.966;7.958;2022-10-31T14:34:34;19.70;99.90
2603;DHT22;1311;47.966;7.958;2022-10-31T14:37:14;19.60;99.90
2603;DHT22;1311;47.966;7.958;2022-10-31T14:39:49;19.50;99.90
2603;DHT22;1311;47.966;7.958;2022-10-31T14:42:32;19.40;99.90
2603;DHT22;1311;47.966;7.958;2022-10-31T14:48:01;19.40;99.90
2603;DHT22;1311;47.966;7.958;2022-10-31T14:50:47;19.50;99.90
2603;DHT22;1311;47.966;7.958;2022-10-31T14:53:19;19.50;99.90
2603;DHT22;1311;47.966;7.958;2022-10-31T14:55:51;19.50;99.90
2603;DHT22;1311;47.966;7.958;2022-10-31T14:58:22;19.60;99.90
2603;DHT22;1311;47.966;7.958;2022-10-31T15:00:53;19.50;99.90
2603;DHT22;1311;47.966;7.958;2022-10-31T15:03:25;19.50;99.90
2603;DHT22;1311;47.966;7.958;2022-10-31T15:05:55;19.50;99.90
2603;DHT22;1311;47.966;7.958;2022-10-31T15:08:38;19.50;99.90
2603;DHT22;1311;47.966;7.958;2022-10-31T15:11:14;19.50;99.90
2603;DHT22;1311;47.966;7.958;2022-10-31T15:13:43;19.40;99.90
2603;DHT22;1311;47.966;7.958;2022-10-31T15:16:11;19.30;99.90
2603;DHT22;1311;47.966;7.958;2022-10-31T15:18:47;19.20;99.90
2603;DHT22;1311;47.966;7.958;2022-10-31T15:21:16;19.00;99.90
2603;DHT22;1311;47.966;7.958;2022-10-31T15:23:44;18.80;99.90
2603;DHT22;1311;47.966;7.958;2022-10-31T15:26:17;18.70;99.90
2603;DHT22;1311;47.966;7.958;2022-10-31T15:28:44;18.60;99.90
2603;DHT22;1311;47.966;7.958;2022-10-31T15:31:16;18.50;99.90
2603;DHT22;1311;47.966;7.958;2022-10-31T15:33:47;18.40;99.90
2603;DHT22;1311;47.966;7.958;2022-10-31T15:36:20;18.30;99.90
2603;DHT22;1311;47.966;7.958;2022-10-31T15:38:48;18.20;99.90
2603;DHT22;1311;47.966;7.958;2022-10-31T15:41:27;18.10;99.90
2603;DHT22;1311;47.966;7.958;2022-10-31T15:43:59;18.00;99.90
2603;DHT22;1311;47.966;7.958;2022-10-31T15:46:30;17.90;99.90
2603;DHT22;1311;47.966;7.958;2022-10-31T15:48:57;17.80;99.90
2603;DHT22;1311;47.966;7.958;2022-10-31T15:51:33;17.80;99.90
2603;DHT22;1311;47.966;7.958;2022-10-31T15:54:02;17.70;99.90
2603;DHT22;1311;47.966;7.958;2022-10-31T15:56:32;17.70;99.90
2603;DHT22;1311;47.966;7.958;2022-10-31T15:59:00;17.60;99.90
2603;DHT22;1311;47.966;7.958;2022-10-31T16:01:30;17.50;99.90
2603;DHT22;1311;47.966;7.958;2022-10-31T16:04:00;17.50;99.90
2603;DHT22;1311;47.966;7.958;2022-10-31T16:06:32;17.30;99.90
2603;DHT22;1311;47.966;7.958;2022-10-31T16:09:00;17.20;99.90
2603;DHT22;1311;47.966;7.958;2022-10-31T16:11:34;17.10;99.90
2603;DHT22;1311;47.966;7.958;2022-10-31T16:14:04;17.10;99.90
2603;DHT22;1311;47.966;7.958;2022-10-31T16:16:33;16.90;99.90
2603;DHT22;1311;47.966;7.958;2022-10-31T16:19:03;16.80;99.90
2603;DHT22;1311;47.966;7.958;2022-10-31T16:21:32;16.70;99.90
2603;DHT22;1311;47.966;7.958;2022-10-31T16:24:02;16.60;99.90
2603;DHT22;1311;47.966;7.958;2022-10-31T16:26:31;16.50;99.90
2603;DHT22;1311;47.966;7.958;2022-10-31T16:29:04;16.40;99.90
2603;DHT22;1311;47.966;7.958;2022-10-31T16:31:39;16.30;99.90